sensor_id;sensor_type;location;lat;lon;timestamp;pressure;altitude;pressure_sealevel;temperature;humidity
80333;BME280;69652;51.864;-2.246;2024-02-23T00:00:00;98391.94;;;5.00;87.69
80333;BME280;69652;51.864;-2.246;2024-02-23T00:02:31;98383.41;;;4.98;87.95
80333;BME280;69652;51.864;-2.246;2024-02-23T00:04:56;98396.38;;;4.96;86.79
80333;BME280;69652;51.864;-2.246;2024-02-23T00:07:22;98385.75;;;5.00;87.09
80333;BME280;69652;51.864;-2.246;2024-02-23T00:09:47;98376.59;;;5.01;86.04
80333;BME280;69652;51.864;-2.246;2024-02-23T00:12:13;98374.06;;;5.04;85.76
80333;BME280;69652;51.864;-2.246;2024-02-23T00:14:39;98382.91;;;5.05;86.86
80333;BME280;69652;51.864;-2.246;2024-02-23T00:17:05;98372.28;;;5.08;86.64
80333;BME280;69652;51.864;-2.246;2024-02-23T00:19:31;98364.22;;;5.08;86.40
80333;BME280;69652;51.864;-2.246;2024-02-23T00:21:56;98359.94;;;5.07;86.18
80333;BME280;69652;51.864;-2.246;2024-02-23T00:24:25;98371.38;;;5.04;87.30
80333;BME280;69652;51.864;-2.246;2024-02-23T00:26:50;98360.94;;;5.03;87.17
80333;BME280;69652;51.864;-2.246;2024-02-23T00:29:17;98359.19;;;4.98;86.54
80333;BME280;69652;51.864;-2.246;2024-02-23T00:31:43;98359.34;;;5.02;86.74
80333;BME280;69652;51.864;-2.246;2024-02-23T00:34:12;98366.31;;;5.03;87.56
80333;BME280;69652;51.864;-2.246;2024-02-23T00:36:42;98358.72;;;5.05;85.32
80333;BME280;69652;51.864;-2.246;2024-02-23T00:39:09;98355.69;;;5.06;86.89
80333;BME280;69652;51.864;-2.246;2024-02-23T00:41:35;98362.97;;;5.06;85.91
80333;BME280;69652;51.864;-2.246;2024-02-23T00:44:02;98358.72;;;5.05;87.21
80333;BME280;69652;51.864;-2.246;2024-02-23T00:46:28;98356.97;;;5.00;87.79
80333;BME280;69652;51.864;-2.246;2024-02-23T00:48:53;98369.63;;;5.00;87.98
80333;BME280;69652;51.864;-2.246;2024-02-23T00:51:19;98366.78;;;4.96;89.05
80333;BME280;69652;51.864;-2.246;2024-02-23T00:53:45;98362.09;;;4.93;90.00
80333;BME280;69652;51.864;-2.246;2024-02-23T00:56:10;98359.41;;;4.85;90.05
80333;BME280;69652;51.864;-2.246;2024-02-23T00:58:36;98360.72;;;4.79;90.37
80333;BME280;69652;51.864;-2.246;2024-02-23T01:01:01;98354.72;;;4.73;91.47
80333;BME280;69652;51.864;-2.246;2024-02-23T01:03:27;98352.56;;;4.66;92.54
80333;BME280;69652;51.864;-2.246;2024-02-23T01:05:53;98354.81;;;4.56;93.58
80333;BME280;69652;51.864;-2.246;2024-02-23T01:08:19;98356.09;;;4.41;93.58
80333;BME280;69652;51.864;-2.246;2024-02-23T01:10:45;98358.03;;;4.32;94.65
80333;BME280;69652;51.864;-2.246;2024-02-23T01:13:11;98350.00;;;4.23;93.64
80333;BME280;69652;51.864;-2.246;2024-02-23T01:15:36;98340.22;;;4.19;94.44
80333;BME280;69652;51.864;-2.246;2024-02-23T01:18:03;98348.91;;;4.16;94.85
80333;BME280;69652;51.864;-2.246;2024-02-23T01:20:29;98346.72;;;4.09;95.12
80333;BME280;69652;51.864;-2.246;2024-02-23T01:22:54;98330.44;;;4.06;95.78
80333;BME280;69652;51.864;-2.246;2024-02-23T01:25:20;98351.59;;;4.07;95.99
80333;BME280;69652;51.864;-2.246;2024-02-23T01:27:45;98344.34;;;4.08;95.65
80333;BME280;69652;51.864;-2.246;2024-02-23T01:30:11;98346.72;;;4.09;95.92
80333;BME280;69652;51.864;-2.246;2024-02-23T01:32:37;98341.66;;;4.08;96.71
80333;BME280;69652;51.864;-2.246;2024-02-23T01:35:05;98331.72;;;4.08;96.14
80333;BME280;69652;51.864;-2.246;2024-02-23T01:37:31;98333.44;;;4.04;96.88
80333;BME280;69652;51.864;-2.246;2024-02-23T01:39:57;98331.22;;;4.06;97.72
80333;BME280;69652;51.864;-2.246;2024-02-23T01:42:22;98333.91;;;4.06;96.50
80333;BME280;69652;51.864;-2.246;2024-02-23T01:44:49;98334.22;;;4.05;97.39
80333;BME280;69652;51.864;-2.246;2024-02-23T01:47:15;98331.53;;;4.05;96.89
80333;BME280;69652;51.864;-2.246;2024-02-23T01:49:41;98335.81;;;4.06;97.30
80333;BME280;69652;51.864;-2.246;2024-02-23T01:52:07;98332.03;;;4.07;96.61
80333;BME280;69652;51.864;-2.246;2024-02-23T01:54:33;98339.75;;;4.08;97.87
80333;BME280;69652;51.864;-2.246;2024-02-23T01:57:00;98318.59;;;4.07;96.67
80333;BME280;69652;51.864;-2.246;2024-02-23T01:59:26;98312.44;;;4.06;97.54
80333;BME280;69652;51.864;-2.246;2024-02-23T02:01:52;98305.34;;;4.02;97.80
80333;BME280;69652;51.864;-2.246;2024-02-23T02:04:18;98319.72;;;3.97;97.98
80333;BME280;69652;51.864;-2.246;2024-02-23T02:06:45;98311.50;;;3.93;98.83
80333;BME280;69652;51.864;-2.246;2024-02-23T02:09:11;98317.66;;;3.94;98.47
80333;BME280;69652;51.864;-2.246;2024-02-23T02:11:48;98312.31;;;3.94;98.49
80333;BME280;69652;51.864;-2.246;2024-02-23T02:14:14;98312.63;;;3.92;97.72
80333;BME280;69652;51.864;-2.246;2024-02-23T02:16:40;98318.78;;;3.93;98.95
80333;BME280;69652;51.864;-2.246;2024-02-23T02:19:06;98322.88;;;3.90;98.80
80333;BME280;69652;51.864;-2.246;2024-02-23T02:21:32;98312.50;;;3.89;97.84
80333;BME280;69652;51.864;-2.246;2024-02-23T02:23:58;98305.06;;;3.86;98.82
80333;BME280;69652;51.864;-2.246;2024-02-23T02:26:23;98293.84;;;3.84;98.26
80333;BME280;69652;51.864;-2.246;2024-02-23T02:28:49;98290.88;;;3.77;99.82
80333;BME280;69652;51.864;-2.246;2024-02-23T02:31:15;98274.47;;;3.70;98.84
80333;BME280;69652;51.864;-2.246;2024-02-23T02:33:40;98275.44;;;3.65;99.12
80333;BME280;69652;51.864;-2.246;2024-02-23T02:36:06;98284.09;;;3.62;100.00
80333;BME280;69652;51.864;-2.246;2024-02-23T02:38:32;98283.78;;;3.63;99.84
80333;BME280;69652;51.864;-2.246;2024-02-23T02:41:01;98287.09;;;3.60;100.00
80333;BME280;69652;51.864;-2.246;2024-02-23T02:43:30;98306.50;;;3.57;100.00
80333;BME280;69652;51.864;-2.246;2024-02-23T02:45:56;98310.59;;;3.55;99.58
80333;BME280;69652;51.864;-2.246;2024-02-23T02:48:22;98310.13;;;3.61;99.54
80333;BME280;69652;51.864;-2.246;2024-02-23T02:50:47;98301.13;;;3.66;99.50
80333;BME280;69652;51.864;-2.246;2024-02-23T02:53:15;98308.53;;;3.69;99.72
80333;BME280;69652;51.864;-2.246;2024-02-23T02:55:42;98302.56;;;3.72;100.00
80333;BME280;69652;51.864;-2.246;2024-02-23T02:58:08;98304.44;;;3.72;100.00
80333;BME280;69652;51.864;-2.246;2024-02-23T03:00:34;98302.56;;;3.72;100.00
80333;BME280;69652;51.864;-2.246;2024-02-23T03:03:00;98311.88;;;3.75;99.78
80333;BME280;69652;51.864;-2.246;2024-02-23T03:05:25;98316.56;;;3.78;100.00
80333;BME280;69652;51.864;-2.246;2024-02-23T03:07:51;98313.88;;;3.78;99.79
80333;BME280;69652;51.864;-2.246;2024-02-23T03:10:17;98315.63;;;3.82;100.00
80333;BME280;69652;51.864;-2.246;2024-02-23T03:12:43;98316.91;;;3.85;99.63
80333;BME280;69652;51.864;-2.246;2024-02-23T03:15:09;98313.59;;;3.88;99.92
80333;BME280;69652;51.864;-2.246;2024-02-23T03:17:37;98320.38;;;3.85;99.85
80333;BME280;69652;51.864;-2.246;2024-02-23T03:20:04;98316.44;;;3.83;99.89
80333;BME280;69652;51.864;-2.246;2024-02-23T03:22:37;98324.16;;;3.84;99.56
80333;BME280;69652;51.864;-2.246;2024-02-23T03:25:04;98313.75;;;3.83;99.35
80333;BME280;69652;51.864;-2.246;2024-02-23T03:27:34;98312.00;;;3.78;99.72
80333;BME280;69652;51.864;-2.246;2024-02-23T03:29:59;98309.66;;;3.77;99.47
80333;BME280;69652;51.864;-2.246;2024-02-23T03:32:25;98297.66;;;3.74;99.43
80333;BME280;69652;51.864;-2.246;2024-02-23T03:34:51;98298.28;;;3.71;99.01
80333;BME280;69652;51.864;-2.246;2024-02-23T03:37:16;98294.03;;;3.70;100.00
80333;BME280;69652;51.864;-2.246;2024-02-23T03:39:42;98300.50;;;3.69;99.53
80333;BME280;69652;51.864;-2.246;2024-02-23T03:42:07;98297.69;;;3.66;99.28
80333;BME280;69652;51.864;-2.246;2024-02-23T03:44:33;98295.75;;;3.66;99.01
80333;BME280;69652;51.864;-2.246;2024-02-23T03:46:58;98312.63;;;3.67;100.00
80333;BME280;69652;51.864;-2.246;2024-02-23T03:49:24;98307.94;;;3.63;99.04
80333;BME280;69652;51.864;-2.246;2024-02-23T03:51:50;98309.34;;;3.61;99.40
80333;BME280;69652;51.864;-2.246;2024-02-23T03:54:15;98310.13;;;3.61;99.59
80333;BME280;69652;51.864;-2.246;2024-02-23T03:56:41;98308.56;;;3.60;99.01
80333;BME280;69652;51.864;-2.246;2024-02-23T03:59:08;98308.38;;;3.57;98.67
80333;BME280;69652;51.864;-2.246;2024-02-23T04:01:36;98312.97;;;3.56;99.02
80333;BME280;69652;51.864;-2.246;2024-02-23T04:04:02;98314.06;;;3.55;99.03
80333;BME280;69652;51.864;-2.246;2024-02-23T04:06:27;98310.47;;;3.51;99.64
80333;BME280;69652;51.864;-2.246;2024-02-23T04:08:53;98310.75;;;3.50;100.00
80333;BME280;69652;51.864;-2.246;2024-02-23T04:11:18;98318.81;;;3.50;99.55
80333;BME280;69652;51.864;-2.246;2024-02-23T04:13:44;98326.38;;;3.48;100.00
80333;BME280;69652;51.864;-2.246;2024-02-23T04:16:09;98325.91;;;3.46;99.62
80333;BME280;69652;51.864;-2.246;2024-02-23T04:18:35;98336.31;;;3.47;99.41
80333;BME280;69652;51.864;-2.246;2024-02-23T04:21:01;98335.22;;;3.48;99.29
80333;BME280;69652;51.864;-2.246;2024-02-23T04:23:26;98331.44;;;3.49;99.74
80333;BME280;69652;51.864;-2.246;2024-02-23T04:25:52;98328.28;;;3.47;99.92
80333;BME280;69652;51.864;-2.246;2024-02-23T04:28:17;98334.72;;;3.46;99.63
80333;BME280;69652;51.864;-2.246;2024-02-23T04:30:43;98325.91;;;3.46;100.00
80333;BME280;69652;51.864;-2.246;2024-02-23T04:33:08;98341.84;;;3.51;100.00
80333;BME280;69652;51.864;-2.246;2024-02-23T04:35:34;98334.91;;;3.50;99.69
80333;BME280;69652;51.864;-2.246;2024-02-23T04:37:59;98344.53;;;3.51;99.77
80333;BME280;69652;51.864;-2.246;2024-02-23T04:40:25;98349.09;;;3.50;99.76
80333;BME280;69652;51.864;-2.246;2024-02-23T04:42:51;98347.69;;;3.53;100.00
80333;BME280;69652;51.864;-2.246;2024-02-23T04:45:16;98351.94;;;3.54;100.00
80333;BME280;69652;51.864;-2.246;2024-02-23T04:47:42;98355.41;;;3.54;99.77
80333;BME280;69652;51.864;-2.246;2024-02-23T04:50:08;98358.56;;;3.56;99.84
80333;BME280;69652;51.864;-2.246;2024-02-23T04:52:34;98347.38;;;3.63;99.70
80333;BME280;69652;51.864;-2.246;2024-02-23T04:54:59;98359.69;;;3.64;99.27
80333;BME280;69652;51.864;-2.246;2024-02-23T04:57:25;98360.00;;;3.71;99.69
80333;BME280;69652;51.864;-2.246;2024-02-23T04:59:50;98355.72;;;3.70;98.90
80333;BME280;69652;51.864;-2.246;2024-02-23T05:02:16;98360.31;;;3.70;99.00
80333;BME280;69652;51.864;-2.246;2024-02-23T05:04:41;98357.00;;;3.73;100.00
80333;BME280;69652;51.864;-2.246;2024-02-23T05:07:07;98359.69;;;3.73;99.00
80333;BME280;69652;51.864;-2.246;2024-02-23T05:09:32;98366.31;;;3.75;100.00
80333;BME280;69652;51.864;-2.246;2024-02-23T05:12:00;98364.41;;;3.76;100.00
80333;BME280;69652;51.864;-2.246;2024-02-23T05:14:26;98368.22;;;3.75;99.88
80333;BME280;69652;51.864;-2.246;2024-02-23T05:16:52;98367.88;;;3.76;99.24
80333;BME280;69652;51.864;-2.246;2024-02-23T05:19:17;98370.41;;;3.73;98.74
80333;BME280;69652;51.864;-2.246;2024-02-23T05:21:43;98372.78;;;3.74;100.00
80333;BME280;69652;51.864;-2.246;2024-02-23T05:24:10;98379.72;;;3.75;98.91
80333;BME280;69652;51.864;-2.246;2024-02-23T05:26:36;98388.88;;;3.74;99.65
80333;BME280;69652;51.864;-2.246;2024-02-23T05:29:01;98381.63;;;3.75;98.83
80333;BME280;69652;51.864;-2.246;2024-02-23T05:31:48;98369.78;;;3.76;99.54
80333;BME280;69652;51.864;-2.246;2024-02-23T05:34:14;98375.16;;;3.76;99.61
80333;BME280;69652;51.864;-2.246;2024-02-23T05:36:40;98367.41;;;3.74;98.83
80333;BME280;69652;51.864;-2.246;2024-02-23T05:39:06;98365.53;;;3.75;99.46
80333;BME280;69652;51.864;-2.246;2024-02-23T05:41:33;98378.63;;;3.76;99.10
80333;BME280;69652;51.864;-2.246;2024-02-23T05:43:59;98382.72;;;3.74;99.20
80333;BME280;69652;51.864;-2.246;2024-02-23T05:46:24;98380.34;;;3.72;100.00
80333;BME280;69652;51.864;-2.246;2024-02-23T05:48:50;98386.50;;;3.73;99.31
80333;BME280;69652;51.864;-2.246;2024-02-23T05:51:15;98382.88;;;3.77;100.00
80333;BME280;69652;51.864;-2.246;2024-02-23T05:53:41;98384.59;;;3.82;98.93
80333;BME280;69652;51.864;-2.246;2024-02-23T05:56:06;98390.59;;;3.79;99.82
80333;BME280;69652;51.864;-2.246;2024-02-23T05:58:32;98390.59;;;3.79;99.78
80333;BME280;69652;51.864;-2.246;2024-02-23T06:00:58;98379.88;;;3.79;98.60
80333;BME280;69652;51.864;-2.246;2024-02-23T06:03:23;98388.88;;;3.83;99.67
80333;BME280;69652;51.864;-2.246;2024-02-23T06:05:49;98380.50;;;3.84;98.44
80333;BME280;69652;51.864;-2.246;2024-02-23T06:08:15;98393.75;;;3.81;98.01
80333;BME280;69652;51.864;-2.246;2024-02-23T06:10:40;98391.88;;;3.81;98.33
80333;BME280;69652;51.864;-2.246;2024-02-23T06:13:08;98390.75;;;3.82;99.21
80333;BME280;69652;51.864;-2.246;2024-02-23T06:15:33;98378.63;;;3.85;99.29
80333;BME280;69652;51.864;-2.246;2024-02-23T06:17:59;98382.09;;;3.85;97.54
80333;BME280;69652;51.864;-2.246;2024-02-23T06:20:25;98382.56;;;3.87;98.44
80333;BME280;69652;51.864;-2.246;2024-02-23T06:22:50;98378.44;;;3.90;97.14
80333;BME280;69652;51.864;-2.246;2024-02-23T06:25:16;98376.41;;;3.87;97.25
80333;BME280;69652;51.864;-2.246;2024-02-23T06:27:41;98374.81;;;3.86;97.64
80333;BME280;69652;51.864;-2.246;2024-02-23T06:30:08;98375.94;;;3.85;97.21
80333;BME280;69652;51.864;-2.246;2024-02-23T06:32:33;98378.31;;;3.86;97.73
80333;BME280;69652;51.864;-2.246;2024-02-23T06:34:59;98375.16;;;3.84;97.09
80333;BME280;69652;51.864;-2.246;2024-02-23T06:37:25;98373.72;;;3.87;96.48
80333;BME280;69652;51.864;-2.246;2024-02-23T06:39:50;98374.81;;;3.86;97.35
80333;BME280;69652;51.864;-2.246;2024-02-23T06:42:22;98374.66;;;3.82;97.65
80333;BME280;69652;51.864;-2.246;2024-02-23T06:44:48;98375.16;;;3.76;96.27
80333;BME280;69652;51.864;-2.246;2024-02-23T06:47:14;98388.72;;;3.71;97.32
80333;BME280;69652;51.864;-2.246;2024-02-23T06:49:43;98398.97;;;3.69;98.43
80333;BME280;69652;51.864;-2.246;2024-02-23T06:52:10;98394.38;;;3.60;97.22
80333;BME280;69652;51.864;-2.246;2024-02-23T06:54:36;98397.84;;;3.52;98.49
80333;BME280;69652;51.864;-2.246;2024-02-23T06:57:02;98408.41;;;3.49;98.94
80333;BME280;69652;51.864;-2.246;2024-02-23T06:59:28;98404.44;;;3.46;97.98
80333;BME280;69652;51.864;-2.246;2024-02-23T07:01:54;98407.13;;;3.46;99.23
80333;BME280;69652;51.864;-2.246;2024-02-23T07:04:20;98406.81;;;3.48;98.23
80333;BME280;69652;51.864;-2.246;2024-02-23T07:06:46;98405.72;;;3.49;98.19
80333;BME280;69652;51.864;-2.246;2024-02-23T07:09:12;98398.16;;;3.51;99.39
80333;BME280;69652;51.864;-2.246;2024-02-23T07:11:38;98400.53;;;3.52;97.67
80333;BME280;69652;51.864;-2.246;2024-02-23T07:14:04;98396.28;;;3.51;98.44
80333;BME280;69652;51.864;-2.246;2024-02-23T07:16:30;98401.78;;;3.55;98.30
80333;BME280;69652;51.864;-2.246;2024-02-23T07:18:56;98398.66;;;3.53;97.65
80333;BME280;69652;51.864;-2.246;2024-02-23T07:21:22;98400.53;;;3.52;97.74
80333;BME280;69652;51.864;-2.246;2024-02-23T07:23:48;98396.41;;;3.55;98.91
80333;BME280;69652;51.864;-2.246;2024-02-23T07:26:13;98410.63;;;3.55;99.28
80333;BME280;69652;51.864;-2.246;2024-02-23T07:28:39;98415.97;;;3.55;99.12
80333;BME280;69652;51.864;-2.246;2024-02-23T07:31:05;98417.88;;;3.55;98.80
80333;BME280;69652;51.864;-2.246;2024-02-23T07:33:33;98421.03;;;3.57;98.75
80333;BME280;69652;51.864;-2.246;2024-02-23T07:35:59;98422.63;;;3.58;99.35
80333;BME280;69652;51.864;-2.246;2024-02-23T07:38:24;98426.41;;;3.57;98.07
80333;BME280;69652;51.864;-2.246;2024-02-23T07:40:50;98431.94;;;3.60;98.83
80333;BME280;69652;51.864;-2.246;2024-02-23T07:43:15;98438.25;;;3.65;99.43
80333;BME280;69652;51.864;-2.246;2024-02-23T07:45:41;98443.63;;;3.65;99.97
80333;BME280;69652;51.864;-2.246;2024-02-23T07:48:07;98447.09;;;3.65;99.21
80333;BME280;69652;51.864;-2.246;2024-02-23T07:50:34;98453.72;;;3.68;99.71
80333;BME280;69652;51.864;-2.246;2024-02-23T07:52:59;98464.91;;;3.70;98.19
80333;BME280;69652;51.864;-2.246;2024-02-23T07:55:25;98471.25;;;3.74;98.98
80333;BME280;69652;51.864;-2.246;2024-02-23T07:57:50;98474.41;;;3.76;98.26
80333;BME280;69652;51.864;-2.246;2024-02-23T08:00:16;98478.03;;;3.80;99.02
80333;BME280;69652;51.864;-2.246;2024-02-23T08:02:42;98472.66;;;3.80;98.68
80333;BME280;69652;51.864;-2.246;2024-02-23T08:05:08;98478.81;;;3.80;98.68
80333;BME280;69652;51.864;-2.246;2024-02-23T08:07:33;98482.59;;;3.79;98.86
80333;BME280;69652;51.864;-2.246;2024-02-23T08:09:59;98484.19;;;3.80;99.02
80333;BME280;69652;51.864;-2.246;2024-02-23T08:12:26;98491.94;;;3.82;98.77
80333;BME280;69652;51.864;-2.246;2024-02-23T08:14:52;98500.16;;;3.85;99.76
80333;BME280;69652;51.864;-2.246;2024-02-23T08:17:18;98489.13;;;3.87;99.66
80333;BME280;69652;51.864;-2.246;2024-02-23T08:19:44;98499.69;;;3.92;99.01
80333;BME280;69652;51.864;-2.246;2024-02-23T08:22:10;98502.22;;;3.97;99.41
80333;BME280;69652;51.864;-2.246;2024-02-23T08:24:35;98492.13;;;4.03;99.27
80333;BME280;69652;51.864;-2.246;2024-02-23T08:27:01;98506.19;;;4.08;99.47
80333;BME280;69652;51.864;-2.246;2024-02-23T08:29:28;98502.56;;;4.13;98.36
80333;BME280;69652;51.864;-2.246;2024-02-23T08:31:53;98499.72;;;4.18;99.08
80333;BME280;69652;51.864;-2.246;2024-02-23T08:34:19;98494.34;;;4.26;97.60
80333;BME280;69652;51.864;-2.246;2024-02-23T08:36:44;98494.19;;;4.31;98.20
80333;BME280;69652;51.864;-2.246;2024-02-23T08:39:10;98493.06;;;4.41;97.78
80333;BME280;69652;51.864;-2.246;2024-02-23T08:41:36;98499.72;;;4.44;97.70
80333;BME280;69652;51.864;-2.246;2024-02-23T08:44:01;98489.75;;;4.44;96.55
80333;BME280;69652;51.864;-2.246;2024-02-23T08:46:27;98496.53;;;4.50;97.94
80333;BME280;69652;51.864;-2.246;2024-02-23T08:48:52;98494.00;;;4.54;96.78
80333;BME280;69652;51.864;-2.246;2024-02-23T08:51:18;98494.50;;;4.56;96.79
80333;BME280;69652;51.864;-2.246;2024-02-23T08:53:44;98487.69;;;4.58;97.92
80333;BME280;69652;51.864;-2.246;2024-02-23T08:56:12;98491.31;;;4.62;98.03
80333;BME280;69652;51.864;-2.246;2024-02-23T08:58:37;98493.38;;;4.65;97.88
80333;BME280;69652;51.864;-2.246;2024-02-23T09:01:03;98497.81;;;4.70;97.86
80333;BME280;69652;51.864;-2.246;2024-02-23T09:03:31;98491.31;;;4.71;97.39
80333;BME280;69652;51.864;-2.246;2024-02-23T09:05:57;98496.69;;;4.71;96.32
80333;BME280;69652;51.864;-2.246;2024-02-23T09:08:23;98496.34;;;4.81;96.97
80333;BME280;69652;51.864;-2.246;2024-02-23T09:10:48;98489.06;;;4.90;96.16
80333;BME280;69652;51.864;-2.246;2024-02-23T09:13:14;98495.97;;;5.00;95.93
80333;BME280;69652;51.864;-2.246;2024-02-23T09:15:40;98506.69;;;5.08;95.18
80333;BME280;69652;51.864;-2.246;2024-02-23T09:18:08;98499.09;;;5.19;95.05
80333;BME280;69652;51.864;-2.246;2024-02-23T09:20:33;98498.91;;;5.24;95.32
80333;BME280;69652;51.864;-2.246;2024-02-23T09:22:59;98494.94;;;5.30;94.44
80333;BME280;69652;51.864;-2.246;2024-02-23T09:25:25;98491.91;;;5.32;94.66
80333;BME280;69652;51.864;-2.246;2024-02-23T09:27:50;98504.88;;;5.38;94.50
80333;BME280;69652;51.864;-2.246;2024-02-23T09:30:16;98501.19;;;5.43;93.03
80333;BME280;69652;51.864;-2.246;2024-02-23T09:32:41;98503.56;;;5.44;93.25
80333;BME280;69652;51.864;-2.246;2024-02-23T09:35:10;98494.69;;;5.53;93.32
80333;BME280;69652;51.864;-2.246;2024-02-23T09:37:35;98500.81;;;5.62;91.37
80333;BME280;69652;51.864;-2.246;2024-02-23T09:40:01;98505.03;;;5.71;92.19
80333;BME280;69652;51.864;-2.246;2024-02-23T09:42:28;98507.34;;;5.81;91.01
80333;BME280;69652;51.864;-2.246;2024-02-23T09:44:59;98497.50;;;5.86;90.12
80333;BME280;69652;51.864;-2.246;2024-02-23T09:47:28;98504.75;;;5.94;89.83
80333;BME280;69652;51.864;-2.246;2024-02-23T09:49:54;98499.66;;;6.01;90.61
80333;BME280;69652;51.864;-2.246;2024-02-23T09:52:21;98506.41;;;6.07;89.01
80333;BME280;69652;51.864;-2.246;2024-02-23T09:54:47;98510.38;;;6.09;89.28
80333;BME280;69652;51.864;-2.246;2024-02-23T09:57:15;98503.22;;;6.13;89.37
80333;BME280;69652;51.864;-2.246;2024-02-23T09:59:41;98509.50;;;6.18;89.00
80333;BME280;69652;51.864;-2.246;2024-02-23T10:02:14;98506.75;;;6.26;89.75
80333;BME280;69652;51.864;-2.246;2024-02-23T10:04:41;98506.31;;;6.24;89.03
80333;BME280;69652;51.864;-2.246;2024-02-23T10:07:09;98514.19;;;6.29;89.32
80333;BME280;69652;51.864;-2.246;2024-02-23T10:09:35;98511.31;;;6.34;89.43
80333;BME280;69652;51.864;-2.246;2024-02-23T10:12:02;98527.56;;;6.38;88.10
80333;BME280;69652;51.864;-2.246;2024-02-23T10:14:28;98515.81;;;6.42;88.35
80333;BME280;69652;51.864;-2.246;2024-02-23T10:16:53;98520.09;;;6.43;88.50
80333;BME280;69652;51.864;-2.246;2024-02-23T10:19:21;98524.94;;;6.50;87.97
80333;BME280;69652;51.864;-2.246;2024-02-23T10:21:47;98521.69;;;6.44;88.17
80333;BME280;69652;51.864;-2.246;2024-02-23T10:24:15;98527.63;;;6.50;88.24
80333;BME280;69652;51.864;-2.246;2024-02-23T10:26:44;98531.59;;;6.52;87.52
80333;BME280;69652;51.864;-2.246;2024-02-23T10:29:10;98532.84;;;6.55;87.87
80333;BME280;69652;51.864;-2.246;2024-02-23T10:31:36;98535.91;;;6.66;87.39
80333;BME280;69652;51.864;-2.246;2024-02-23T10:34:08;98546.63;;;6.74;87.52
80333;BME280;69652;51.864;-2.246;2024-02-23T10:36:40;98537.56;;;6.79;87.75
80333;BME280;69652;51.864;-2.246;2024-02-23T10:39:07;98537.59;;;6.91;87.96
80333;BME280;69652;51.864;-2.246;2024-02-23T10:41:35;98537.03;;;6.98;87.65
80333;BME280;69652;51.864;-2.246;2024-02-23T10:44:03;98544.47;;;7.01;86.96
80333;BME280;69652;51.864;-2.246;2024-02-23T10:46:31;98541.13;;;7.04;85.57
80333;BME280;69652;51.864;-2.246;2024-02-23T10:48:58;98538.00;;;7.14;85.61
80333;BME280;69652;51.864;-2.246;2024-02-23T10:51:25;98541.94;;;7.16;85.43
80333;BME280;69652;51.864;-2.246;2024-02-23T10:53:52;98550.72;;;7.25;84.77
80333;BME280;69652;51.864;-2.246;2024-02-23T10:56:18;98543.56;;;7.42;84.51
80333;BME280;69652;51.864;-2.246;2024-02-23T10:58:45;98555.59;;;7.44;83.50
80333;BME280;69652;51.864;-2.246;2024-02-23T11:01:12;98550.66;;;7.58;85.03
80333;BME280;69652;51.864;-2.246;2024-02-23T11:03:41;98553.25;;;7.67;83.77
80333;BME280;69652;51.864;-2.246;2024-02-23T11:06:08;98549.66;;;7.87;83.44
80333;BME280;69652;51.864;-2.246;2024-02-23T11:08:34;98556.97;;;8.11;84.03
80333;BME280;69652;51.864;-2.246;2024-02-23T11:11:09;98546.94;;;8.12;82.92
80333;BME280;69652;51.864;-2.246;2024-02-23T11:13:36;98549.84;;;8.19;82.89
80333;BME280;69652;51.864;-2.246;2024-02-23T11:16:06;98554.00;;;8.28;81.58
80333;BME280;69652;51.864;-2.246;2024-02-23T11:18:34;98551.19;;;8.49;79.64
80333;BME280;69652;51.864;-2.246;2024-02-23T11:21:01;98551.63;;;8.27;80.61
80333;BME280;69652;51.864;-2.246;2024-02-23T11:26:10;98556.72;;;8.04;80.15
80333;BME280;69652;51.864;-2.246;2024-02-23T11:29:11;98555.53;;;7.89;80.15
80333;BME280;69652;51.864;-2.246;2024-02-23T11:31:44;98561.59;;;7.86;80.03
80333;BME280;69652;51.864;-2.246;2024-02-23T11:34:11;98558.44;;;7.72;82.09
80333;BME280;69652;51.864;-2.246;2024-02-23T11:36:38;98553.03;;;7.60;82.90
80333;BME280;69652;51.864;-2.246;2024-02-23T11:39:04;98548.28;;;7.57;81.96
80333;BME280;69652;51.864;-2.246;2024-02-23T11:41:30;98553.00;;;7.36;81.45
80333;BME280;69652;51.864;-2.246;2024-02-23T11:43:57;98546.16;;;7.38;81.47
80333;BME280;69652;51.864;-2.246;2024-02-23T11:46:25;98550.16;;;7.32;82.61
80333;BME280;69652;51.864;-2.246;2024-02-23T11:48:51;98549.97;;;7.37;83.08
80333;BME280;69652;51.864;-2.246;2024-02-23T11:51:21;98555.47;;;7.29;82.75
80333;BME280;69652;51.864;-2.246;2024-02-23T11:53:47;98571.94;;;7.15;82.61
80333;BME280;69652;51.864;-2.246;2024-02-23T11:56:13;98573.84;;;7.14;82.72
80333;BME280;69652;51.864;-2.246;2024-02-23T11:58:40;98568.41;;;7.02;83.41
80333;BME280;69652;51.864;-2.246;2024-02-23T12:01:06;98572.25;;;7.01;83.14
80333;BME280;69652;51.864;-2.246;2024-02-23T12:03:32;98574.94;;;7.01;83.40
80333;BME280;69652;51.864;-2.246;2024-02-23T12:06:02;98574.00;;;6.97;83.77
80333;BME280;69652;51.864;-2.246;2024-02-23T12:08:30;98572.47;;;6.96;83.59
80333;BME280;69652;51.864;-2.246;2024-02-23T12:11:03;98583.44;;;6.91;83.81
80333;BME280;69652;51.864;-2.246;2024-02-23T12:13:29;98576.38;;;6.99;83.27
80333;BME280;69652;51.864;-2.246;2024-02-23T12:15:55;98581.31;;;6.97;82.93
80333;BME280;69652;51.864;-2.246;2024-02-23T12:18:22;98579.16;;;6.90;83.60
80333;BME280;69652;51.864;-2.246;2024-02-23T12:21:00;98582.28;;;6.80;83.03
80333;BME280;69652;51.864;-2.246;2024-02-23T12:23:27;98578.03;;;6.91;83.92
80333;BME280;69652;51.864;-2.246;2024-02-23T12:25:54;98586.00;;;6.87;83.03
80333;BME280;69652;51.864;-2.246;2024-02-23T12:28:20;98585.09;;;6.83;83.07
80333;BME280;69652;51.864;-2.246;2024-02-23T12:30:46;98577.75;;;6.72;83.81
80333;BME280;69652;51.864;-2.246;2024-02-23T12:33:16;98578.13;;;6.62;82.77
80333;BME280;69652;51.864;-2.246;2024-02-23T12:35:42;98569.59;;;6.60;82.73
80333;BME280;69652;51.864;-2.246;2024-02-23T12:38:07;98570.09;;;6.53;82.53
80333;BME280;69652;51.864;-2.246;2024-02-23T12:40:33;98567.28;;;6.49;82.13
80333;BME280;69652;51.864;-2.246;2024-02-23T12:42:58;98569.97;;;6.49;82.45
80333;BME280;69652;51.864;-2.246;2024-02-23T12:45:24;98569.38;;;6.44;81.89
80333;BME280;69652;51.864;-2.246;2024-02-23T12:47:49;98580.34;;;6.39;81.88
80333;BME280;69652;51.864;-2.246;2024-02-23T12:50:15;98572.16;;;6.35;82.14
80333;BME280;69652;51.864;-2.246;2024-02-23T12:52:41;98580.88;;;6.32;82.48
80333;BME280;69652;51.864;-2.246;2024-02-23T12:55:08;98576.59;;;6.31;82.21
80333;BME280;69652;51.864;-2.246;2024-02-23T12:57:34;98576.16;;;6.29;83.85